createdAt,value
2018-09-29T00:00:15.041Z,8.80
2018-09-29T00:01:14.952Z,8.30
2018-09-29T00:02:14.974Z,12.50
2018-09-29T00:03:15.033Z,11.40
2018-09-29T00:04:14.990Z,11.60
2018-09-29T00:05:15.117Z,8.50
2018-09-29T00:06:15.022Z,11.30
2018-09-29T00:07:15.041Z,8.00
2018-09-29T00:08:15.060Z,11.70
2018-09-29T00:09:15.080Z,11.30
2018-09-29T00:10:15.213Z,9.40
2018-09-29T00:11:15.105Z,10.20
2018-09-29T00:12:15.121Z,8.80
2018-09-29T00:13:15.125Z,8.30
2018-09-29T00:14:15.152Z,9.20
2018-09-29T00:15:15.249Z,8.60
2018-09-29T00:16:15.181Z,11.80
2018-09-29T00:17:15.181Z,9.70
2018-09-29T00:18:15.211Z,9.60
2018-09-29T00:19:15.233Z,9.10
2018-09-29T00:20:15.328Z,9.10
2018-09-29T00:21:15.253Z,9.50
2018-09-29T00:22:15.271Z,13.30
2018-09-29T00:23:15.291Z,10.40
2018-09-29T00:24:15.297Z,12.30
2018-09-29T00:25:15.658Z,10.70
2018-09-29T00:26:15.739Z,9.40
2018-09-29T00:27:15.335Z,8.70
2018-09-29T00:28:16.167Z,8.60
2018-09-29T00:29:15.364Z,8.00
2018-09-29T00:30:15.490Z,8.40
2018-09-29T00:31:15.406Z,8.70
2018-09-29T00:32:15.614Z,8.20
2018-09-29T00:33:15.627Z,8.90
2018-09-29T00:34:15.435Z,7.90
2018-09-29T00:35:15.564Z,9.10
2018-09-29T00:36:15.686Z,8.50
2018-09-29T00:37:15.486Z,8.60
2018-09-29T00:38:15.500Z,8.20
2018-09-29T00:39:15.916Z,7.60
2018-09-29T00:40:15.628Z,6.60
2018-09-29T00:41:15.555Z,6.20
2018-09-29T00:42:15.558Z,8.00
2018-09-29T00:43:15.569Z,7.20
2018-09-29T00:44:15.585Z,8.00
2018-09-29T00:45:15.798Z,5.90
2018-09-29T00:46:15.629Z,5.60
2018-09-29T00:47:15.629Z,5.10
2018-09-29T00:48:15.655Z,5.30
2018-09-29T00:49:15.669Z,5.00
2018-09-29T00:50:15.679Z,5.60
2018-09-29T00:51:15.788Z,5.00
2018-09-29T00:52:15.706Z,4.30
2018-09-29T00:53:15.736Z,4.50
2018-09-29T00:54:15.748Z,4.80
2018-09-29T00:55:15.762Z,4.30
2018-09-29T00:56:15.863Z,4.50
2018-09-29T00:57:15.773Z,5.00
2018-09-29T00:58:15.804Z,4.90
2018-09-29T00:59:15.816Z,4.80
2018-09-29T01:00:15.835Z,5.00
2018-09-29T01:01:15.948Z,5.20
2018-09-29T01:02:15.852Z,5.20
2018-09-29T01:03:15.870Z,5.60
2018-09-29T01:04:15.893Z,6.40
2018-09-29T01:05:15.895Z,7.60
2018-09-29T01:06:16.016Z,5.90
2018-09-29T01:07:15.939Z,6.20
2018-09-29T01:08:15.950Z,5.30
2018-09-29T01:09:15.965Z,7.90
2018-09-29T01:10:15.969Z,5.90
2018-09-29T01:11:16.081Z,6.40
2018-09-29T01:12:16.010Z,5.80
2018-09-29T01:13:16.028Z,10.00
2018-09-29T01:14:16.041Z,7.00
2018-09-29T01:15:16.045Z,6.00
2018-09-29T01:16:16.157Z,7.50
2018-09-29T01:17:16.074Z,6.80
2018-09-29T01:18:16.086Z,6.50
2018-09-29T01:19:16.115Z,6.80
2018-09-29T01:20:16.124Z,7.00
2018-09-29T01:21:16.230Z,7.30
2018-09-29T01:22:16.146Z,8.80
2018-09-29T01:23:16.161Z,11.20
2018-09-29T01:24:16.177Z,9.20
2018-09-29T01:25:16.191Z,9.20
2018-09-29T01:26:16.314Z,11.40
2018-09-29T01:27:16.225Z,12.90
2018-09-29T01:28:16.233Z,10.40
2018-09-29T01:29:16.262Z,14.20
2018-09-29T01:30:16.273Z,11.10
2018-09-29T01:31:16.378Z,11.70
2018-09-29T01:32:16.305Z,11.40
2018-09-29T01:33:16.306Z,12.80
2018-09-29T01:34:16.326Z,11.60
2018-09-29T01:35:16.345Z,12.30
2018-09-29T01:36:16.466Z,15.30
2018-09-29T01:37:16.366Z,14.70
2018-09-29T01:38:16.401Z,12.40
2018-09-29T01:39:16.397Z,15.40
2018-09-29T01:40:16.422Z,12.90
2018-09-29T01:41:16.544Z,11.90
2018-09-29T01:42:16.446Z,10.10
2018-09-29T01:43:16.467Z,11.10
2018-09-29T01:44:16.481Z,9.50
2018-09-29T01:45:16.489Z,9.40
2018-09-29T01:46:16.601Z,12.80
2018-09-29T01:47:16.513Z,9.80
2018-09-29T01:48:16.542Z,9.70
2018-09-29T01:49:16.550Z,10.60
2018-09-29T01:50:16.564Z,10.20
2018-09-29T01:51:16.667Z,10.80
2018-09-29T01:52:16.603Z,10.30
2018-09-29T01:53:16.618Z,12.70
2018-09-29T01:54:16.619Z,10.80
2018-09-29T01:55:16.642Z,11.80
2018-09-29T01:56:16.654Z,11.30
2018-09-29T01:57:16.759Z,11.30
2018-09-29T01:58:16.685Z,12.30
2018-09-29T01:59:16.689Z,13.30
2018-09-29T02:00:16.710Z,13.00
2018-09-29T02:01:16.721Z,16.00
2018-09-29T02:02:16.833Z,13.50
2018-09-29T02:03:16.759Z,12.00
2018-09-29T02:04:16.761Z,13.50
2018-09-29T02:05:16.779Z,12.40
2018-09-29T02:06:16.808Z,12.40
2018-09-29T02:07:16.921Z,12.30
2018-09-29T02:08:16.836Z,10.40
2018-09-29T02:09:16.848Z,10.40
2018-09-29T02:10:16.850Z,13.50
2018-09-29T02:11:16.873Z,13.10
2018-09-29T02:12:16.994Z,11.40
2018-09-29T02:13:16.897Z,11.20
2018-09-29T02:14:16.907Z,12.50
2018-09-29T02:15:16.946Z,14.00
2018-09-29T02:16:16.946Z,10.10
2018-09-29T02:17:17.063Z,12.00
2018-09-29T02:18:16.980Z,15.60
2018-09-29T02:19:16.998Z,13.90
2018-09-29T02:20:17.008Z,17.00
2018-09-29T02:21:17.024Z,18.30
2018-09-29T02:22:17.141Z,10.70
2018-09-29T02:23:17.054Z,10.90
2018-09-29T02:24:17.071Z,11.20
2018-09-29T02:25:17.080Z,10.90
2018-09-29T02:26:17.099Z,10.90
2018-09-29T02:27:17.203Z,10.30
2018-09-29T02:28:17.121Z,10.30
2018-09-29T02:29:17.141Z,12.20
2018-09-29T02:30:17.157Z,10.00
2018-09-29T02:31:17.163Z,12.50
2018-09-29T02:32:17.286Z,15.80
2018-09-29T02:33:17.192Z,12.50
2018-09-29T02:34:17.217Z,11.50
2018-09-29T02:35:17.232Z,11.60
2018-09-29T02:36:17.246Z,11.30
2018-09-29T02:37:17.362Z,11.40
2018-09-29T02:38:17.275Z,10.60
2018-09-29T02:39:17.277Z,11.70
2018-09-29T02:40:17.300Z,12.70
2018-09-29T02:41:17.319Z,9.90
2018-09-29T02:42:17.423Z,10.30
2018-09-29T02:43:17.347Z,10.90
2018-09-29T02:44:17.367Z,13.40
2018-09-29T02:45:17.379Z,15.60
2018-09-29T02:46:17.394Z,10.20
2018-09-29T02:47:17.498Z,9.90
2018-09-29T02:48:17.419Z,14.90
2018-09-29T02:49:17.439Z,13.70
2018-09-29T02:50:17.454Z,14.80
2018-09-29T02:51:17.466Z,18.80
2018-09-29T02:52:17.571Z,18.80
2018-09-29T02:53:17.493Z,18.30
2018-09-29T02:54:17.503Z,19.60
2018-09-29T02:55:17.519Z,18.20
2018-09-29T02:56:17.529Z,16.20
2018-09-29T02:57:17.642Z,14.60
2018-09-29T02:58:17.566Z,12.40
2018-09-29T02:59:17.585Z,13.30
2018-09-29T03:00:17.604Z,13.20
2018-09-29T03:01:17.628Z,13.00
2018-09-29T03:02:17.722Z,11.50
2018-09-29T03:03:17.646Z,11.50
2018-09-29T03:04:17.663Z,11.30
2018-09-29T03:05:17.668Z,8.70
2018-09-29T03:06:17.695Z,9.00
2018-09-29T03:07:17.908Z,10.60
2018-09-29T03:08:17.714Z,11.10
2018-09-29T03:09:17.735Z,12.90
2018-09-29T03:10:17.751Z,10.20
2018-09-29T03:11:17.765Z,13.70
2018-09-29T03:12:17.875Z,10.70
2018-09-29T03:13:17.794Z,9.90
2018-09-29T03:14:17.798Z,11.70
2018-09-29T03:15:17.809Z,11.20
2018-09-29T03:16:17.830Z,11.10
2018-09-29T03:17:17.952Z,11.00
2018-09-29T03:18:17.865Z,9.10
2018-09-29T03:19:17.942Z,7.80
2018-09-29T03:20:17.897Z,6.80
2018-09-29T03:21:17.910Z,4.70
2018-09-29T03:22:18.015Z,3.60
2018-09-29T03:23:18.029Z,3.50
2018-09-29T03:24:17.945Z,3.40
2018-09-29T03:25:17.961Z,4.10
2018-09-29T03:26:17.977Z,3.60
2018-09-29T03:27:18.090Z,3.20
2018-09-29T03:28:18.015Z,4.60
2018-09-29T03:29:18.019Z,3.50
2018-09-29T03:30:18.040Z,3.80
2018-09-29T03:31:18.046Z,3.00
2018-09-29T03:32:18.334Z,5.20
2018-09-29T03:33:18.094Z,3.70
2018-09-29T03:34:18.099Z,3.30
2018-09-29T03:35:18.110Z,5.00
2018-09-29T03:36:18.124Z,4.20
2018-09-29T03:37:18.238Z,3.20
2018-09-29T03:38:18.165Z,4.70
2018-09-29T03:39:18.172Z,4.30
2018-09-29T03:40:18.181Z,3.80
2018-09-29T03:41:18.195Z,2.30
2018-09-29T03:42:18.316Z,3.00
2018-09-29T03:43:18.227Z,3.00
2018-09-29T03:44:18.240Z,3.70
2018-09-29T03:45:18.265Z,2.90
2018-09-29T03:46:18.284Z,4.10
2018-09-29T03:47:18.545Z,5.00
2018-09-29T03:48:18.291Z,3.10
2018-09-29T03:49:18.322Z,2.80
2018-09-29T03:50:18.339Z,3.00
2018-09-29T03:51:18.404Z,2.90
2018-09-29T03:52:18.469Z,2.20
2018-09-29T03:53:18.386Z,1.70
2018-09-29T03:54:18.409Z,2.10
2018-09-29T03:55:18.409Z,2.00
2018-09-29T03:56:18.412Z,7.00
2018-09-29T03:57:18.532Z,5.10
2018-09-29T03:58:18.448Z,2.80
2018-09-29T03:59:18.471Z,1.90
2018-09-29T04:00:18.469Z,2.00
2018-09-29T04:01:18.496Z,2.10
2018-09-29T04:02:18.601Z,1.60
2018-09-29T04:03:18.512Z,3.30
2018-09-29T04:04:18.574Z,1.30
2018-09-29T04:05:18.566Z,2.10
2018-09-29T04:06:18.566Z,1.60
2018-09-29T04:07:18.838Z,2.30
2018-09-29T04:08:18.590Z,3.30
2018-09-29T04:09:18.605Z,3.50
2018-09-29T04:10:18.636Z,1.30
2018-09-29T04:11:18.653Z,0.80
2018-09-29T04:12:18.655Z,1.80
2018-09-29T04:13:18.916Z,1.10
2018-09-29T04:14:18.683Z,0.80
2018-09-29T04:15:18.709Z,1.30
2018-09-29T04:16:18.721Z,1.40
2018-09-29T04:17:18.731Z,1.80
2018-09-29T04:18:18.835Z,1.70
2018-09-29T04:19:18.762Z,1.40
2018-09-29T04:20:18.785Z,0.90
2018-09-29T04:21:18.775Z,1.40
2018-09-29T04:22:18.795Z,2.70
2018-09-29T04:23:18.912Z,2.10
2018-09-29T04:24:18.824Z,2.00
2018-09-29T04:25:18.837Z,1.20
2018-09-29T04:26:18.869Z,1.00
2018-09-29T04:27:18.870Z,3.60
2018-09-29T04:28:19.050Z,1.10
2018-09-29T04:29:18.894Z,1.30
2018-09-29T04:30:18.926Z,1.30
2018-09-29T04:31:18.938Z,1.30
2018-09-29T04:32:18.955Z,2.60
2018-09-29T04:33:19.056Z,1.40
2018-09-29T04:34:18.971Z,1.10
2018-09-29T04:35:18.993Z,1.70
2018-09-29T04:36:18.997Z,1.30
2018-09-29T04:37:19.012Z,1.30
2018-09-29T04:38:19.128Z,3.20
2018-09-29T04:39:19.041Z,2.20
2018-09-29T04:40:19.062Z,1.20
2018-09-29T04:41:19.081Z,2.00
2018-09-29T04:42:19.101Z,1.40
2018-09-29T04:43:19.303Z,2.00
2018-09-29T04:44:19.128Z,2.40
2018-09-29T04:45:19.128Z,1.90
2018-09-29T04:46:19.155Z,4.00
2018-09-29T04:47:19.157Z,3.50
2018-09-29T04:48:19.333Z,2.30
2018-09-29T04:49:19.200Z,2.10
2018-09-29T04:50:19.203Z,5.90
2018-09-29T04:51:19.211Z,3.70
2018-09-29T04:52:19.226Z,4.20
2018-09-29T04:53:19.354Z,2.40
2018-09-29T04:54:19.262Z,1.70
2018-09-29T04:55:19.271Z,1.30
2018-09-29T04:56:19.290Z,6.30
2018-09-29T04:57:19.312Z,1.90
2018-09-29T04:58:19.459Z,2.90
2018-09-29T04:59:19.340Z,3.70
2018-09-29T05:00:19.347Z,3.20
2018-09-29T05:01:19.373Z,3.80
2018-09-29T05:02:19.387Z,5.60
2018-09-29T05:03:19.539Z,2.10
2018-09-29T05:04:19.402Z,1.20
2018-09-29T05:05:19.423Z,2.20
2018-09-29T05:06:19.489Z,1.80
2018-09-29T05:07:19.455Z,4.00
2018-09-29T05:08:19.713Z,2.20
2018-09-29T05:09:19.487Z,1.50
2018-09-29T05:10:19.490Z,1.90
2018-09-29T05:11:19.500Z,1.80
2018-09-29T05:12:19.521Z,3.30
2018-09-29T05:13:19.549Z,3.50
2018-09-29T05:14:19.648Z,2.50
2018-09-29T05:15:19.559Z,2.40
2018-09-29T05:16:19.585Z,3.10
2018-09-29T05:17:19.608Z,2.00
2018-09-29T05:18:19.622Z,2.10
2018-09-29T05:19:19.622Z,4.00
2018-09-29T05:20:19.887Z,5.60
2018-09-29T05:21:19.658Z,4.20
2018-09-29T05:22:19.675Z,3.70
2018-09-29T05:23:19.796Z,3.20
2018-09-29T05:24:19.693Z,4.30
2018-09-29T05:25:19.816Z,4.30
2018-09-29T05:26:19.725Z,3.00
2018-09-29T05:27:19.746Z,6.20
2018-09-29T05:28:19.753Z,3.80
2018-09-29T05:29:19.777Z,3.90
2018-09-29T05:30:19.881Z,4.60
2018-09-29T05:31:19.793Z,3.50
2018-09-29T05:32:19.821Z,5.30
2018-09-29T05:33:19.841Z,3.20
2018-09-29T05:34:19.846Z,2.90
2018-09-29T05:35:20.113Z,4.40
2018-09-29T05:36:19.878Z,2.80
2018-09-29T05:37:19.883Z,2.50
2018-09-29T05:38:19.971Z,3.40
2018-09-29T05:39:19.924Z,3.10
2018-09-29T05:40:20.036Z,2.90
2018-09-29T05:41:19.953Z,3.10
2018-09-29T05:42:19.963Z,2.60
2018-09-29T05:43:19.969Z,3.10
2018-09-29T05:44:19.976Z,3.60
2018-09-29T05:45:20.099Z,2.50
2018-09-29T05:46:20.014Z,2.90
2018-09-29T05:47:20.026Z,4.30
2018-09-29T05:48:20.120Z,3.30
2018-09-29T05:49:20.065Z,4.30
2018-09-29T05:50:20.173Z,3.00
2018-09-29T05:51:20.083Z,4.20
2018-09-29T05:52:20.097Z,3.10
2018-09-29T05:53:20.114Z,3.80
2018-09-29T05:54:20.143Z,4.60
2018-09-29T05:55:20.251Z,4.00
2018-09-29T05:56:20.171Z,4.50
2018-09-29T05:57:20.170Z,3.70
2018-09-29T05:58:20.196Z,3.50
2018-09-29T05:59:20.198Z,3.30
2018-09-29T06:00:20.379Z,4.70
2018-09-29T06:01:20.221Z,3.50
2018-09-29T06:02:20.249Z,3.70
2018-09-29T06:03:20.267Z,3.40
2018-09-29T06:04:20.276Z,2.50
2018-09-29T06:05:20.471Z,2.50
2018-09-29T06:06:20.297Z,3.00
2018-09-29T06:07:20.359Z,3.00
2018-09-29T06:08:20.358Z,2.90
2018-09-29T06:09:20.343Z,3.10
2018-09-29T06:10:20.458Z,3.40
2018-09-29T06:11:20.384Z,4.00
2018-09-29T06:12:20.383Z,4.90
2018-09-29T06:13:20.559Z,3.90
2018-09-29T06:14:20.428Z,4.20
2018-09-29T06:15:20.530Z,4.10
2018-09-29T06:16:20.449Z,3.70
2018-09-29T06:17:20.457Z,4.60
2018-09-29T06:18:20.487Z,3.00
2018-09-29T06:19:20.500Z,4.20
2018-09-29T06:20:20.603Z,5.20
2018-09-29T06:21:20.509Z,6.60
2018-09-29T06:22:20.530Z,3.40
2018-09-29T06:23:20.559Z,3.70
2018-09-29T06:24:20.556Z,4.00
2018-09-29T06:25:20.676Z,3.50
2018-09-29T06:26:20.585Z,3.40
2018-09-29T06:27:20.611Z,5.40
2018-09-29T06:28:20.628Z,5.50
2018-09-29T06:29:20.643Z,5.20
2018-09-29T06:30:20.758Z,6.70
2018-09-29T06:31:20.672Z,4.70
2018-09-29T06:32:20.680Z,6.50
2018-09-29T06:33:20.684Z,5.30
2018-09-29T06:34:20.788Z,4.90
2018-09-29T06:35:20.828Z,6.80
2018-09-29T06:36:20.743Z,4.80
2018-09-29T06:37:20.749Z,5.00
2018-09-29T06:38:20.834Z,4.80
2018-09-29T06:39:20.783Z,6.30
2018-09-29T06:40:20.898Z,3.40
2018-09-29T06:41:20.815Z,3.60
2018-09-29T06:42:20.819Z,5.70
2018-09-29T06:43:20.845Z,5.80
2018-09-29T06:44:20.859Z,4.60
2018-09-29T06:45:20.964Z,5.60
2018-09-29T06:46:20.876Z,3.70
2018-09-29T06:47:20.906Z,4.10
2018-09-29T06:48:20.904Z,4.00
2018-09-29T06:49:20.922Z,3.90
2018-09-29T06:50:21.043Z,6.50
2018-09-29T06:51:20.960Z,7.80
2018-09-29T06:52:20.973Z,8.00
2018-09-29T06:53:20.990Z,6.20
2018-09-29T06:54:21.007Z,6.90
2018-09-29T06:55:21.102Z,4.10
2018-09-29T06:56:21.027Z,5.00
2018-09-29T06:57:21.044Z,5.70
2018-09-29T06:58:21.047Z,7.00
2018-09-29T06:59:21.060Z,9.40
2018-09-29T07:00:21.178Z,13.40
2018-09-29T07:01:21.098Z,8.00
2018-09-29T07:02:21.115Z,8.50
2018-09-29T07:03:21.125Z,9.40
2018-09-29T07:04:21.138Z,10.10
2018-09-29T07:05:21.259Z,6.20
2018-09-29T07:06:21.157Z,6.90
2018-09-29T07:07:21.172Z,6.60
2018-09-29T07:08:21.190Z,7.80
2018-09-29T07:09:21.199Z,8.70
2018-09-29T07:10:21.317Z,5.80
2018-09-29T07:11:21.278Z,8.50
2018-09-29T07:12:21.293Z,10.90
2018-09-29T07:13:21.263Z,7.20
2018-09-29T07:14:21.278Z,5.70
2018-09-29T07:15:21.384Z,10.40
2018-09-29T07:16:21.304Z,8.30
2018-09-29T07:17:21.324Z,7.20
2018-09-29T07:18:21.341Z,6.50
2018-09-29T07:19:21.352Z,7.30
2018-09-29T07:20:21.454Z,7.40
2018-09-29T07:21:21.373Z,8.80
2018-09-29T07:22:21.383Z,6.80
2018-09-29T07:23:21.408Z,7.80
2018-09-29T07:24:21.410Z,6.30
2018-09-29T07:25:21.547Z,5.90
2018-09-29T07:26:21.434Z,7.40
2018-09-29T07:27:21.453Z,6.20
2018-09-29T07:28:21.477Z,5.40
2018-09-29T07:29:21.478Z,7.30
2018-09-29T07:30:21.681Z,6.60
2018-09-29T07:31:21.524Z,7.60
2018-09-29T07:32:21.524Z,9.60
2018-09-29T07:33:21.547Z,6.30
2018-09-29T07:34:21.553Z,6.00
2018-09-29T07:35:21.564Z,6.70
2018-09-29T07:36:21.827Z,6.80
2018-09-29T07:37:21.589Z,6.70
2018-09-29T07:38:21.616Z,6.00
2018-09-29T07:39:21.625Z,6.20
2018-09-29T07:40:21.645Z,7.50
2018-09-29T07:41:21.759Z,9.30
2018-09-29T07:42:21.669Z,9.40
2018-09-29T07:43:21.687Z,6.90
2018-09-29T07:44:21.699Z,8.50
2018-09-29T07:45:21.706Z,7.60
2018-09-29T07:46:21.827Z,7.30
2018-09-29T07:47:21.735Z,9.40
2018-09-29T07:48:21.747Z,10.80
2018-09-29T07:49:21.774Z,10.20
2018-09-29T07:50:21.781Z,8.90
2018-09-29T07:51:21.902Z,13.50
2018-09-29T07:52:21.813Z,13.90
2018-09-29T07:53:21.833Z,9.00
2018-09-29T07:54:21.855Z,11.10
2018-09-29T07:55:21.844Z,10.00
2018-09-29T07:56:21.973Z,7.10
2018-09-29T07:57:21.888Z,7.60
2018-09-29T07:58:21.898Z,7.70
2018-09-29T07:59:21.903Z,6.90
2018-09-29T08:00:21.928Z,7.30
2018-09-29T08:01:22.188Z,6.80
2018-09-29T08:02:21.944Z,5.90
2018-09-29T08:03:21.976Z,6.30
2018-09-29T08:04:21.984Z,6.10
2018-09-29T08:05:21.998Z,5.60
2018-09-29T08:06:22.210Z,8.70
2018-09-29T08:07:22.014Z,5.90
2018-09-29T08:08:22.029Z,7.20
2018-09-29T08:09:22.067Z,7.60
2018-09-29T08:10:22.076Z,7.90
2018-09-29T08:11:22.172Z,6.40
2018-09-29T08:12:22.144Z,7.50
2018-09-29T08:13:22.108Z,6.50
2018-09-29T08:14:22.135Z,5.00
2018-09-29T08:15:22.129Z,5.80
2018-09-29T08:16:22.244Z,7.90
2018-09-29T08:17:22.170Z,6.10
2018-09-29T08:18:22.187Z,4.50
2018-09-29T08:19:22.200Z,5.50
2018-09-29T08:20:22.217Z,7.00
2018-09-29T08:21:22.318Z,5.80
2018-09-29T08:22:22.226Z,5.00
2018-09-29T08:23:22.258Z,5.60
2018-09-29T08:24:22.319Z,6.70
2018-09-29T08:25:22.271Z,8.00
2018-09-29T08:26:22.396Z,6.60
2018-09-29T08:27:22.300Z,5.10
2018-09-29T08:28:22.321Z,5.40
2018-09-29T08:29:22.332Z,6.10
2018-09-29T08:30:22.354Z,5.90
2018-09-29T08:31:22.468Z,6.30
2018-09-29T08:32:22.423Z,5.90
2018-09-29T08:33:22.385Z,5.30
2018-09-29T08:34:22.411Z,7.10
2018-09-29T08:35:22.410Z,5.90
2018-09-29T08:36:22.542Z,6.00
2018-09-29T08:37:22.456Z,5.20
2018-09-29T08:38:22.453Z,6.40
2018-09-29T08:39:22.481Z,4.80
2018-09-29T08:40:22.498Z,6.70
2018-09-29T08:41:22.613Z,5.90
2018-09-29T08:42:22.526Z,6.30
2018-09-29T08:43:22.529Z,6.10
2018-09-29T08:44:22.547Z,5.90
2018-09-29T08:45:22.573Z,5.00
2018-09-29T08:46:22.577Z,7.30
2018-09-29T08:47:22.685Z,5.30
2018-09-29T08:48:22.599Z,9.40
2018-09-29T08:49:22.622Z,7.30
2018-09-29T08:50:22.639Z,5.30
2018-09-29T08:51:22.641Z,4.30
2018-09-29T08:52:22.768Z,6.10
2018-09-29T08:53:22.728Z,5.30
2018-09-29T08:54:22.695Z,6.60
2018-09-29T08:55:22.711Z,6.20
2018-09-29T08:56:22.723Z,5.20
2018-09-29T08:57:22.837Z,8.40
2018-09-29T08:58:22.750Z,8.50
2018-09-29T08:59:22.767Z,7.40
2018-09-29T09:00:22.771Z,9.30
2018-09-29T09:01:22.787Z,7.10
2018-09-29T09:02:22.955Z,9.60
2018-09-29T09:03:22.864Z,9.40
2018-09-29T09:04:22.875Z,11.00
2018-09-29T09:05:22.894Z,5.60
2018-09-29T09:06:22.926Z,6.30
2018-09-29T09:07:23.025Z,5.20
2018-09-29T09:08:22.891Z,5.40
2018-09-29T09:09:22.979Z,5.10
2018-09-29T09:10:22.922Z,4.80
2018-09-29T09:11:22.938Z,6.20
2018-09-29T09:12:23.048Z,5.70
2018-09-29T09:13:22.953Z,5.70
2018-09-29T09:14:22.984Z,4.10
2018-09-29T09:15:22.996Z,4.60
2018-09-29T09:16:22.997Z,6.20
2018-09-29T09:17:23.127Z,4.40
2018-09-29T09:18:23.041Z,5.10
2018-09-29T09:19:23.040Z,4.20
2018-09-29T09:20:23.070Z,5.10
2018-09-29T09:21:23.084Z,5.20
2018-09-29T09:22:23.204Z,5.40
2018-09-29T09:23:23.146Z,5.70
2018-09-29T09:24:23.269Z,5.10
2018-09-29T09:25:23.126Z,6.00
2018-09-29T09:26:23.143Z,5.10
2018-09-29T09:27:23.273Z,5.60
2018-09-29T09:28:23.184Z,5.00
2018-09-29T09:29:23.196Z,5.60
2018-09-29T09:30:23.296Z,5.60
2018-09-29T09:31:23.224Z,5.60
2018-09-29T09:32:23.332Z,4.80
2018-09-29T09:33:23.243Z,4.90
2018-09-29T09:34:23.263Z,4.50
2018-09-29T09:35:23.271Z,4.50
2018-09-29T09:36:23.303Z,6.30
2018-09-29T09:37:23.401Z,5.40
2018-09-29T09:38:23.324Z,5.10
2018-09-29T09:39:23.330Z,6.80
2018-09-29T09:40:23.358Z,4.90
2018-09-29T09:41:23.364Z,5.30
2018-09-29T09:42:23.484Z,6.70
2018-09-29T09:43:23.447Z,7.20
2018-09-29T09:44:23.411Z,8.30
2018-09-29T09:45:23.429Z,9.40
2018-09-29T09:46:23.434Z,8.70
2018-09-29T09:47:23.556Z,6.10
2018-09-29T09:48:23.460Z,6.60
2018-09-29T09:49:23.484Z,8.00
2018-09-29T09:50:23.498Z,6.40
2018-09-29T09:51:23.510Z,6.20
2018-09-29T09:52:23.617Z,9.00
2018-09-29T09:53:23.551Z,7.20
2018-09-29T09:54:23.553Z,7.30
2018-09-29T09:55:23.574Z,10.10
2018-09-29T09:56:23.576Z,7.60
2018-09-29T09:57:23.590Z,7.30
2018-09-29T09:58:23.702Z,6.40
2018-09-29T09:59:23.666Z,7.50
2018-09-29T10:00:23.643Z,7.10
2018-09-29T10:01:23.650Z,7.90
2018-09-29T10:02:23.677Z,6.70
2018-09-29T10:03:23.786Z,7.10
2018-09-29T10:04:23.710Z,7.00
2018-09-29T10:05:23.705Z,7.80
2018-09-29T10:06:23.724Z,5.60
2018-09-29T10:07:23.747Z,6.50
2018-09-29T10:08:23.857Z,6.80
2018-09-29T10:09:23.761Z,6.70
2018-09-29T10:10:23.781Z,7.70
2018-09-29T10:11:23.805Z,8.00
2018-09-29T10:12:23.820Z,7.90
2018-09-29T10:13:23.933Z,5.90
2018-09-29T10:14:23.836Z,8.10
2018-09-29T10:15:23.852Z,8.80
2018-09-29T10:16:23.869Z,5.90
2018-09-29T10:17:23.890Z,6.20
2018-09-29T10:18:24.010Z,7.70
2018-09-29T10:19:23.908Z,6.60
2018-09-29T10:20:23.928Z,6.20
2018-09-29T10:21:23.946Z,6.10
2018-09-29T10:22:23.964Z,6.00
2018-09-29T10:23:24.083Z,9.30
2018-09-29T10:24:23.998Z,7.70
2018-09-29T10:25:24.014Z,6.60
2018-09-29T10:26:24.010Z,8.00
2018-09-29T10:27:24.042Z,8.10
2018-09-29T10:28:24.148Z,7.20
2018-09-29T10:29:24.079Z,7.00
2018-09-29T10:30:24.095Z,7.20
2018-09-29T10:31:24.096Z,9.00
2018-09-29T10:32:24.119Z,6.50
2018-09-29T10:33:24.222Z,6.80
2018-09-29T10:34:24.155Z,6.20
2018-09-29T10:35:24.157Z,5.80
2018-09-29T10:36:24.304Z,8.80
2018-09-29T10:37:24.198Z,9.10
2018-09-29T10:38:24.349Z,8.70
2018-09-29T10:39:24.221Z,12.10
2018-09-29T10:40:24.247Z,6.50
2018-09-29T10:41:24.253Z,6.40
2018-09-29T10:42:24.274Z,6.30
2018-09-29T10:43:24.397Z,5.10
2018-09-29T10:44:24.311Z,6.60
2018-09-29T10:45:24.323Z,7.00
2018-09-29T10:46:24.331Z,8.30
2018-09-29T10:47:24.362Z,9.60
2018-09-29T10:48:24.478Z,7.30
2018-09-29T10:49:24.387Z,6.30
2018-09-29T10:50:24.417Z,6.90
2018-09-29T10:51:24.412Z,8.40
2018-09-29T10:52:24.446Z,9.10
2018-09-29T10:53:24.565Z,6.70
2018-09-29T10:54:24.481Z,10.80
2018-09-29T10:55:24.486Z,7.50
2018-09-29T10:56:24.513Z,6.90
2018-09-29T10:57:24.522Z,8.20
2018-09-29T10:58:24.635Z,5.10
2018-09-29T10:59:24.552Z,7.20
2018-09-29T11:00:24.565Z,5.40
2018-09-29T11:01:24.579Z,4.40
2018-09-29T11:02:24.612Z,7.20
2018-09-29T11:03:24.728Z,5.80
2018-09-29T11:04:24.645Z,4.60
2018-09-29T11:05:24.651Z,4.60
2018-09-29T11:06:24.681Z,3.80
2018-09-29T11:07:24.692Z,4.20
2018-09-29T11:08:24.801Z,5.80
2018-09-29T11:09:24.726Z,5.10
2018-09-29T11:10:24.733Z,4.40
2018-09-29T11:11:24.764Z,5.40
2018-09-29T11:12:24.771Z,4.20
2018-09-29T11:13:24.893Z,4.40
2018-09-29T11:14:24.840Z,4.30
2018-09-29T11:15:24.830Z,5.30
2018-09-29T11:16:24.828Z,5.90
2018-09-29T11:17:24.859Z,4.70
2018-09-29T11:18:24.976Z,3.60
2018-09-29T11:19:24.882Z,5.40
2018-09-29T11:20:24.910Z,8.50
2018-09-29T11:21:24.927Z,8.70
2018-09-29T11:22:24.932Z,7.80
2018-09-29T11:23:25.061Z,7.60
2018-09-29T11:24:24.977Z,8.30
2018-09-29T11:25:24.979Z,12.10
2018-09-29T11:26:24.990Z,11.50
2018-09-29T11:27:25.020Z,12.20
2018-09-29T11:28:25.140Z,10.50
2018-09-29T11:29:25.057Z,9.30
2018-09-29T11:30:25.068Z,11.90
2018-09-29T11:31:25.081Z,10.80
2018-09-29T11:32:25.107Z,9.30
2018-09-29T11:33:25.223Z,12.30
2018-09-29T11:34:25.128Z,9.80
2018-09-29T11:35:25.151Z,9.00
2018-09-29T11:36:25.180Z,10.60
2018-09-29T11:37:25.190Z,12.80
2018-09-29T11:38:25.296Z,9.40
2018-09-29T11:39:25.252Z,6.10
2018-09-29T11:40:25.248Z,5.40
2018-09-29T11:41:25.257Z,6.30
2018-09-29T11:42:25.276Z,4.20
2018-09-29T11:43:25.389Z,4.90
2018-09-29T11:44:25.315Z,5.10
2018-09-29T11:45:25.324Z,5.50
2018-09-29T11:46:25.330Z,5.50
2018-09-29T11:47:25.348Z,5.80
2018-09-29T11:48:25.482Z,5.20
2018-09-29T11:49:25.400Z,4.60
2018-09-29T11:50:25.401Z,5.10
2018-09-29T11:51:25.414Z,4.70
2018-09-29T11:52:25.445Z,6.70
2018-09-29T11:53:25.561Z,11.10
2018-09-29T11:54:25.480Z,12.20
2018-09-29T11:55:25.480Z,7.20
2018-09-29T11:56:25.581Z,6.20
2018-09-29T11:57:25.595Z,11.90
2018-09-29T11:58:25.610Z,8.20
2018-09-29T11:59:25.734Z,11.60
2018-09-29T12:00:25.634Z,8.10
2018-09-29T12:01:25.669Z,9.10
2018-09-29T12:02:25.678Z,7.70
2018-09-29T12:03:25.704Z,9.40
2018-09-29T12:04:25.780Z,8.40
2018-09-29T12:05:25.654Z,10.10
2018-09-29T12:06:25.749Z,7.30
2018-09-29T12:07:25.734Z,7.10
2018-09-29T12:08:25.717Z,6.00
2018-09-29T12:09:25.834Z,6.90
2018-09-29T12:10:25.749Z,7.00
2018-09-29T12:11:25.771Z,9.10
2018-09-29T12:12:25.786Z,6.90
2018-09-29T12:13:25.791Z,7.30
2018-09-29T12:14:25.923Z,8.30
2018-09-29T12:15:25.822Z,7.20
2018-09-29T12:16:25.854Z,5.80
2018-09-29T12:17:25.863Z,6.30
2018-09-29T12:18:25.890Z,6.80
2018-09-29T12:19:25.998Z,6.90
2018-09-29T12:20:25.926Z,7.80
2018-09-29T12:21:25.942Z,6.90
2018-09-29T12:22:26.092Z,6.00
2018-09-29T12:23:25.980Z,7.50
2018-09-29T12:24:26.102Z,7.90
2018-09-29T12:25:26.000Z,11.10
2018-09-29T12:26:26.015Z,7.60
2018-09-29T12:27:26.045Z,8.10
2018-09-29T12:28:26.047Z,6.50
2018-09-29T12:29:26.179Z,7.30
2018-09-29T12:30:26.083Z,7.10
2018-09-29T12:31:26.104Z,7.10
2018-09-29T12:32:26.140Z,5.70
2018-09-29T12:33:26.149Z,4.70
2018-09-29T12:34:26.265Z,4.90
2018-09-29T12:35:26.192Z,3.60
2018-09-29T12:36:26.206Z,4.30
2018-09-29T12:37:26.288Z,4.50
2018-09-29T12:38:26.232Z,3.70
2018-09-29T12:39:26.356Z,3.00
2018-09-29T12:40:26.266Z,3.60
2018-09-29T12:41:26.299Z,4.30
2018-09-29T12:42:26.327Z,4.00
2018-09-29T12:43:26.334Z,2.80
2018-09-29T12:44:26.534Z,2.80
2018-09-29T12:45:26.357Z,4.10
2018-09-29T12:46:26.398Z,2.90
2018-09-29T12:47:26.408Z,2.20
2018-09-29T12:48:26.421Z,2.60
2018-09-29T12:49:26.537Z,2.10
2018-09-29T12:50:26.458Z,3.20
2018-09-29T12:51:26.555Z,3.10
2018-09-29T12:52:26.492Z,4.50
2018-09-29T12:53:26.518Z,3.50
2018-09-29T12:54:26.538Z,3.10
2018-09-29T12:55:26.657Z,2.80
2018-09-29T12:56:26.987Z,4.20
2018-09-29T12:57:26.602Z,2.60
2018-09-29T12:58:26.611Z,3.60
2018-09-29T12:59:26.639Z,3.00
2018-09-29T13:00:26.759Z,3.70
2018-09-29T13:01:26.664Z,3.70
2018-09-29T13:02:26.696Z,3.90
2018-09-29T13:03:26.706Z,2.20
2018-09-29T13:04:26.739Z,2.50
2018-09-29T13:05:26.845Z,1.40
2018-09-29T13:06:26.778Z,1.90
2018-09-29T13:07:26.794Z,2.70
2018-09-29T13:08:26.821Z,3.30
2018-09-29T13:09:26.834Z,2.90
2018-09-29T13:10:26.956Z,1.70
2018-09-29T13:11:27.075Z,1.70
2018-09-29T13:12:26.883Z,2.10
2018-09-29T13:13:26.907Z,1.60